sensor_id;sensor_type;location;lat;lon;timestamp;pressure;altitude;pressure_sealevel;temperature;humidity
23996;BME280;12207;50.076;8.848;2023-09-19T00:00:46;99553.38;;;17.89;86.54
23996;BME280;12207;50.076;8.848;2023-09-19T00:03:15;99548.50;;;17.86;86.46
23996;BME280;12207;50.076;8.848;2023-09-19T00:05:44;99559.88;;;17.88;86.05
23996;BME280;12207;50.076;8.848;2023-09-19T00:08:10;99570.47;;;17.90;86.49
23996;BME280;12207;50.076;8.848;2023-09-19T00:10:39;99565.84;;;17.85;86.70
23996;BME280;12207;50.076;8.848;2023-09-19T00:13:07;99564.22;;;17.79;86.16
23996;BME280;12207;50.076;8.848;2023-09-19T00:15:39;99572.91;;;17.76;86.66
23996;BME280;12207;50.076;8.848;2023-09-19T00:18:07;99571.56;;;17.84;85.57
23996;BME280;12207;50.076;8.848;2023-09-19T00:20:37;99571.00;;;17.77;86.38
23996;BME280;12207;50.076;8.848;2023-09-19T00:23:04;99572.63;;;17.72;86.54
23996;BME280;12207;50.076;8.848;2023-09-19T00:25:35;99573.19;;;17.75;86.21
23996;BME280;12207;50.076;8.848;2023-09-19T00:28:03;99584.28;;;17.73;86.52
23996;BME280;12207;50.076;8.848;2023-09-19T00:30:33;99578.06;;;17.78;86.31
23996;BME280;12207;50.076;8.848;2023-09-19T00:33:00;99582.13;;;17.80;85.90
23996;BME280;12207;50.076;8.848;2023-09-19T00:35:27;99577.25;;;17.77;86.22
23996;BME280;12207;50.076;8.848;2023-09-19T00:37:53;99577.50;;;17.81;86.03
23996;BME280;12207;50.076;8.848;2023-09-19T00:40:20;99578.59;;;17.85;85.90
23996;BME280;12207;50.076;8.848;2023-09-19T00:42:48;99572.91;;;17.81;85.47
23996;BME280;12207;50.076;8.848;2023-09-19T00:45:16;99575.34;;;17.83;85.89
23996;BME280;12207;50.076;8.848;2023-09-19T00:47:46;99572.63;;;17.88;85.30
23996;BME280;12207;50.076;8.848;2023-09-19T00:50:19;99572.09;;;17.86;85.42
23996;BME280;12207;50.076;8.848;2023-09-19T00:52:47;99578.88;;;17.83;85.85
23996;BME280;12207;50.076;8.848;2023-09-19T00:55:15;99571.00;;;17.87;85.48
23996;BME280;12207;50.076;8.848;2023-09-19T00:57:42;99584.28;;;17.83;85.80
23996;BME280;12207;50.076;8.848;2023-09-19T01:00:10;99579.94;;;17.82;85.11
23996;BME280;12207;50.076;8.848;2023-09-19T01:02:47;99579.94;;;17.82;85.67
23996;BME280;12207;50.076;8.848;2023-09-19T01:05:14;99580.50;;;17.89;85.22
23996;BME280;12207;50.076;8.848;2023-09-19T01:07:40;99579.13;;;17.92;85.15
23996;BME280;12207;50.076;8.848;2023-09-19T01:10:09;99589.97;;;17.92;84.92
23996;BME280;12207;50.076;8.848;2023-09-19T01:22:05;99604.88;;;17.84;85.20
23996;BME280;12207;50.076;8.848;2023-09-19T01:30:57;99629.28;;;17.89;85.24
23996;BME280;12207;50.076;8.848;2023-09-19T01:33:25;99620.88;;;17.91;85.10
23996;BME280;12207;50.076;8.848;2023-09-19T01:35:52;99629.56;;;17.93;84.81
23996;BME280;12207;50.076;8.848;2023-09-19T01:38:24;99632.00;;;17.94;84.68
23996;BME280;12207;50.076;8.848;2023-09-19T01:41:11;99635.78;;;17.88;85.02
23996;BME280;12207;50.076;8.848;2023-09-19T01:43:43;99640.38;;;17.98;84.69
23996;BME280;12207;50.076;8.848;2023-09-19T01:46:25;99648.78;;;17.91;85.45
23996;BME280;12207;50.076;8.848;2023-09-19T01:52:05;99644.97;;;17.97;84.90
23996;BME280;12207;50.076;8.848;2023-09-19T01:54:42;99644.97;;;17.97;84.44
23996;BME280;12207;50.076;8.848;2023-09-19T01:57:30;99660.69;;;17.95;85.06
23996;BME280;12207;50.076;8.848;2023-09-19T02:00:07;99657.47;;;17.93;85.16
23996;BME280;12207;50.076;8.848;2023-09-19T02:02:36;99654.75;;;17.88;84.89
23996;BME280;12207;50.076;8.848;2023-09-19T02:05:04;99662.91;;;17.88;85.15
23996;BME280;12207;50.076;8.848;2023-09-19T02:07:30;99657.47;;;17.83;84.93
23996;BME280;12207;50.076;8.848;2023-09-19T02:09:59;99657.47;;;17.83;85.07
23996;BME280;12207;50.076;8.848;2023-09-19T02:12:26;99669.94;;;17.84;85.36
23996;BME280;12207;50.076;8.848;2023-09-19T02:14:53;99666.94;;;17.76;85.83
23996;BME280;12207;50.076;8.848;2023-09-19T02:17:19;99668.31;;;17.73;85.80
23996;BME280;12207;50.076;8.848;2023-09-19T02:19:45;99679.72;;;17.70;85.69
23996;BME280;12207;50.076;8.848;2023-09-19T02:22:12;99682.91;;;17.62;86.37
23996;BME280;12207;50.076;8.848;2023-09-19T02:24:38;99682.38;;;17.60;86.32
23996;BME280;12207;50.076;8.848;2023-09-19T02:27:05;99685.06;;;17.55;86.50
23996;BME280;12207;50.076;8.848;2023-09-19T02:29:31;99692.66;;;17.53;86.94
23996;BME280;12207;50.076;8.848;2023-09-19T02:31:58;99691.84;;;17.47;87.13
23996;BME280;12207;50.076;8.848;2023-09-19T02:34:24;99697.53;;;17.46;87.17
23996;BME280;12207;50.076;8.848;2023-09-19T02:36:51;99704.56;;;17.42;87.30
23996;BME280;12207;50.076;8.848;2023-09-19T02:39:19;99700.78;;;17.43;86.95
23996;BME280;12207;50.076;8.848;2023-09-19T02:41:45;99698.59;;;17.34;87.67
23996;BME280;12207;50.076;8.848;2023-09-19T02:44:12;99702.91;;;17.30;87.75
23996;BME280;12207;50.076;8.848;2023-09-19T02:46:38;99706.44;;;17.36;87.66
23996;BME280;12207;50.076;8.848;2023-09-19T02:49:04;99701.28;;;17.29;88.25
23996;BME280;12207;50.076;8.848;2023-09-19T02:51:32;99710.75;;;17.27;88.02
23996;BME280;12207;50.076;8.848;2023-09-19T02:54:01;99707.22;;;17.16;88.73
23996;BME280;12207;50.076;8.848;2023-09-19T02:56:29;99702.34;;;17.18;88.87
23996;BME280;12207;50.076;8.848;2023-09-19T02:58:56;99713.72;;;17.15;88.71
23996;BME280;12207;50.076;8.848;2023-09-19T03:01:25;99711.00;;;17.15;88.79
23996;BME280;12207;50.076;8.848;2023-09-19T03:03:52;99719.09;;;17.10;88.89
23996;BME280;12207;50.076;8.848;2023-09-19T03:06:19;99725.56;;;17.04;89.42
23996;BME280;12207;50.076;8.848;2023-09-19T03:08:46;99718.53;;;17.03;89.15
23996;BME280;12207;50.076;8.848;2023-09-19T03:11:12;99723.41;;;17.06;89.61
23996;BME280;12207;50.076;8.848;2023-09-19T03:13:41;99726.66;;;17.03;89.53
23996;BME280;12207;50.076;8.848;2023-09-19T03:16:08;99721.75;;;16.95;89.63
23996;BME280;12207;50.076;8.848;2023-09-19T03:18:37;99727.19;;;16.95;89.64
23996;BME280;12207;50.076;8.848;2023-09-19T03:21:03;99733.97;;;16.97;89.81
23996;BME280;12207;50.076;8.848;2023-09-19T03:23:30;99722.31;;;16.97;89.17
23996;BME280;12207;50.076;8.848;2023-09-19T03:25:56;99726.06;;;16.91;89.33
23996;BME280;12207;50.076;8.848;2023-09-19T03:28:23;99733.69;;;16.99;89.59
23996;BME280;12207;50.076;8.848;2023-09-19T03:31:04;99736.91;;;16.91;89.31
23996;BME280;12207;50.076;8.848;2023-09-19T03:33:30;99745.00;;;16.86;89.88
23996;BME280;12207;50.076;8.848;2023-09-19T03:36:01;99736.31;;;16.84;90.08
23996;BME280;12207;50.076;8.848;2023-09-19T03:38:31;99735.50;;;16.83;90.15
23996;BME280;12207;50.076;8.848;2023-09-19T03:41:01;99742.78;;;16.78;89.79
23996;BME280;12207;50.076;8.848;2023-09-19T03:43:28;99740.88;;;16.73;90.22
23996;BME280;12207;50.076;8.848;2023-09-19T03:45:54;99739.53;;;16.76;90.08
23996;BME280;12207;50.076;8.848;2023-09-19T03:48:20;99742.25;;;16.76;90.20
23996;BME280;12207;50.076;8.848;2023-09-19T03:50:48;99744.97;;;16.76;90.05
23996;BME280;12207;50.076;8.848;2023-09-19T03:53:14;99741.16;;;16.72;89.75
23996;BME280;12207;50.076;8.848;2023-09-19T03:55:40;99737.59;;;16.66;90.42
23996;BME280;12207;50.076;8.848;2023-09-19T03:58:06;99737.38;;;16.73;89.28
23996;BME280;12207;50.076;8.848;2023-09-19T04:00:32;99742.25;;;16.76;89.22
23996;BME280;12207;50.076;8.848;2023-09-19T04:03:00;99744.38;;;16.68;89.28
23996;BME280;12207;50.076;8.848;2023-09-19T04:05:28;99738.66;;;16.65;88.91
23996;BME280;12207;50.076;8.848;2023-09-19T04:07:55;99733.81;;;16.67;89.27
23996;BME280;12207;50.076;8.848;2023-09-19T04:10:23;99750.31;;;16.65;88.41
23996;BME280;12207;50.076;8.848;2023-09-19T04:12:53;99745.38;;;16.62;88.70
23996;BME280;12207;50.076;8.848;2023-09-19T04:15:20;99740.56;;;16.64;87.88
23996;BME280;12207;50.076;8.848;2023-09-19T04:17:51;99742.44;;;16.64;87.70
23996;BME280;12207;50.076;8.848;2023-09-19T04:20:18;99755.09;;;16.58;87.24
23996;BME280;12207;50.076;8.848;2023-09-19T04:22:45;99748.66;;;16.64;87.23
23996;BME280;12207;50.076;8.848;2023-09-19T04:25:12;99756.72;;;16.59;86.98
23996;BME280;12207;50.076;8.848;2023-09-19T04:27:39;99756.97;;;16.58;87.16
23996;BME280;12207;50.076;8.848;2023-09-19T04:30:07;99763.19;;;16.53;87.20
23996;BME280;12207;50.076;8.848;2023-09-19T04:32:37;99772.66;;;16.51;87.53
23996;BME280;12207;50.076;8.848;2023-09-19T04:35:06;99775.63;;;16.54;86.95
23996;BME280;12207;50.076;8.848;2023-09-19T04:37:38;99769.94;;;16.56;86.27
23996;BME280;12207;50.076;8.848;2023-09-19T04:40:09;99782.09;;;16.48;86.97
23996;BME280;12207;50.076;8.848;2023-09-19T04:42:39;99782.13;;;16.53;85.82
23996;BME280;12207;50.076;8.848;2023-09-19T04:45:06;99786.44;;;16.54;86.71
23996;BME280;12207;50.076;8.848;2023-09-19T04:47:33;99788.31;;;16.54;86.64
23996;BME280;12207;50.076;8.848;2023-09-19T04:49:59;99786.53;;;16.64;86.49
23996;BME280;12207;50.076;8.848;2023-09-19T04:52:25;99791.75;;;16.71;85.71
23996;BME280;12207;50.076;8.848;2023-09-19T04:54:51;99792.03;;;16.75;85.42
23996;BME280;12207;50.076;8.848;2023-09-19T04:57:18;99791.47;;;16.78;85.63
23996;BME280;12207;50.076;8.848;2023-09-19T04:59:44;99786.06;;;16.78;84.28
23996;BME280;12207;50.076;8.848;2023-09-19T05:02:10;99791.75;;;16.71;84.14
23996;BME280;12207;50.076;8.848;2023-09-19T05:04:38;99791.47;;;16.78;84.08
23996;BME280;12207;50.076;8.848;2023-09-19T05:07:04;99802.03;;;16.74;83.88
23996;BME280;12207;50.076;8.848;2023-09-19T05:09:30;99800.97;;;16.75;83.77
23996;BME280;12207;50.076;8.848;2023-09-19T05:11:58;99795.00;;;16.73;83.46
23996;BME280;12207;50.076;8.848;2023-09-19T05:14:24;99789.59;;;16.73;83.82
23996;BME280;12207;50.076;8.848;2023-09-19T05:16:50;99801.22;;;16.74;83.73
23996;BME280;12207;50.076;8.848;2023-09-19T05:19:16;99792.03;;;16.75;83.76
23996;BME280;12207;50.076;8.848;2023-09-19T05:21:42;99803.66;;;16.75;84.11
23996;BME280;12207;50.076;8.848;2023-09-19T05:24:08;99806.16;;;16.87;83.35
23996;BME280;12207;50.076;8.848;2023-09-19T05:26:35;99814.84;;;16.89;83.64
23996;BME280;12207;50.076;8.848;2023-09-19T05:29:04;99816.50;;;16.95;84.17
23996;BME280;12207;50.076;8.848;2023-09-19T05:31:30;99819.25;;;17.05;84.13
23996;BME280;12207;50.076;8.848;2023-09-19T05:33:57;99815.47;;;17.06;84.56
23996;BME280;12207;50.076;8.848;2023-09-19T05:36:23;99817.91;;;17.08;84.62
23996;BME280;12207;50.076;8.848;2023-09-19T05:38:50;99810.31;;;16.99;84.25
23996;BME280;12207;50.076;8.848;2023-09-19T05:41:18;99811.63;;;17.02;84.58
23996;BME280;12207;50.076;8.848;2023-09-19T05:43:44;99813.28;;;17.03;83.55
23996;BME280;12207;50.076;8.848;2023-09-19T05:46:10;99823.31;;;17.08;82.89
23996;BME280;12207;50.076;8.848;2023-09-19T05:48:41;99829.59;;;17.18;82.98
23996;BME280;12207;50.076;8.848;2023-09-19T05:51:09;99816.84;;;17.14;83.01
23996;BME280;12207;50.076;8.848;2023-09-19T05:53:36;99820.41;;;17.19;80.81
23996;BME280;12207;50.076;8.848;2023-09-19T05:56:02;99828.28;;;17.21;80.74
23996;BME280;12207;50.076;8.848;2023-09-19T05:58:31;99830.94;;;17.16;80.74
23996;BME280;12207;50.076;8.848;2023-09-19T06:00:57;99830.97;;;17.26;80.62
23996;BME280;12207;50.076;8.848;2023-09-19T06:03:23;99839.94;;;17.31;80.22
23996;BME280;12207;50.076;8.848;2023-09-19T06:05:49;99844.59;;;17.41;80.18
23996;BME280;12207;50.076;8.848;2023-09-19T06:08:17;99850.31;;;17.45;79.41
23996;BME280;12207;50.076;8.848;2023-09-19T06:10:43;99852.19;;;17.49;79.16
23996;BME280;12207;50.076;8.848;2023-09-19T06:13:09;99852.25;;;17.59;78.92
23996;BME280;12207;50.076;8.848;2023-09-19T06:15:36;99853.66;;;17.67;78.36
23996;BME280;12207;50.076;8.848;2023-09-19T06:18:02;99858.56;;;17.70;78.64
23996;BME280;12207;50.076;8.848;2023-09-19T06:20:30;99861.25;;;17.65;78.07
23996;BME280;12207;50.076;8.848;2023-09-19T06:22:57;99857.19;;;17.72;78.82
23996;BME280;12207;50.076;8.848;2023-09-19T06:25:23;99859.66;;;17.84;77.83
23996;BME280;12207;50.076;8.848;2023-09-19T06:27:51;99862.38;;;17.79;78.38
23996;BME280;12207;50.076;8.848;2023-09-19T06:30:22;99867.22;;;17.72;78.41
23996;BME280;12207;50.076;8.848;2023-09-19T06:32:58;99864.53;;;17.77;78.44
23996;BME280;12207;50.076;8.848;2023-09-19T06:35:25;99874.59;;;17.87;78.30
23996;BME280;12207;50.076;8.848;2023-09-19T06:37:52;99872.16;;;17.90;77.62
23996;BME280;12207;50.076;8.848;2023-09-19T06:40:18;99882.16;;;17.85;77.56
23996;BME280;12207;50.076;8.848;2023-09-19T06:42:46;99885.19;;;17.93;77.05
23996;BME280;12207;50.076;8.848;2023-09-19T06:45:15;99892.25;;;18.04;76.86
23996;BME280;12207;50.076;8.848;2023-09-19T06:47:45;99901.50;;;18.19;76.91
23996;BME280;12207;50.076;8.848;2023-09-19T06:50:12;99899.34;;;18.26;75.94
23996;BME280;12207;50.076;8.848;2023-09-19T06:52:43;99899.34;;;18.36;74.31
23996;BME280;12207;50.076;8.848;2023-09-19T06:55:09;99902.09;;;18.41;74.58
23996;BME280;12207;50.076;8.848;2023-09-19T06:57:37;99910.22;;;18.56;74.39
23996;BME280;12207;50.076;8.848;2023-09-19T07:00:04;99906.41;;;18.57;73.19
23996;BME280;12207;50.076;8.848;2023-09-19T07:02:35;99904.28;;;18.85;73.05
23996;BME280;12207;50.076;8.848;2023-09-19T07:05:01;99910.22;;;18.92;72.71
23996;BME280;12207;50.076;8.848;2023-09-19T07:07:27;99916.47;;;19.02;71.72
23996;BME280;12207;50.076;8.848;2023-09-19T07:09:55;99914.56;;;19.13;71.28
23996;BME280;12207;50.076;8.848;2023-09-19T07:12:21;99921.09;;;19.12;69.94
23996;BME280;12207;50.076;8.848;2023-09-19T07:14:47;99918.38;;;19.02;69.55
23996;BME280;12207;50.076;8.848;2023-09-19T07:17:13;99932.22;;;18.90;70.48
23996;BME280;12207;50.076;8.848;2023-09-19T07:19:44;99931.13;;;19.01;69.10
23996;BME280;12207;50.076;8.848;2023-09-19T07:22:11;99930.88;;;18.98;69.40
23996;BME280;12207;50.076;8.848;2023-09-19T07:24:37;99941.44;;;19.10;68.80
23996;BME280;12207;50.076;8.848;2023-09-19T07:27:04;99948.78;;;19.04;69.28
23996;BME280;12207;50.076;8.848;2023-09-19T07:29:31;99956.91;;;19.14;69.03
23996;BME280;12207;50.076;8.848;2023-09-19T07:31:57;99953.91;;;19.16;68.37
23996;BME280;12207;50.076;8.848;2023-09-19T07:34:23;99968.88;;;19.13;69.56
23996;BME280;12207;50.076;8.848;2023-09-19T07:36:50;99967.22;;;19.22;68.39
23996;BME280;12207;50.076;8.848;2023-09-19T07:39:16;99962.91;;;19.06;68.72
23996;BME280;12207;50.076;8.848;2023-09-19T07:41:42;99972.66;;;19.17;69.41
23996;BME280;12207;50.076;8.848;2023-09-19T07:44:08;99979.72;;;19.28;68.67
23996;BME280;12207;50.076;8.848;2023-09-19T07:46:36;99982.97;;;19.30;68.06
23996;BME280;12207;50.076;8.848;2023-09-19T07:49:02;99984.84;;;19.40;68.51
23996;BME280;12207;50.076;8.848;2023-09-19T07:51:28;99993.28;;;19.38;68.66
23996;BME280;12207;50.076;8.848;2023-09-19T07:53:55;99980.84;;;19.07;68.39
23996;BME280;12207;50.076;8.848;2023-09-19T07:56:21;99972.66;;;19.22;68.35
23996;BME280;12207;50.076;8.848;2023-09-19T07:58:48;99983.81;;;19.26;68.21
23996;BME280;12207;50.076;8.848;2023-09-19T08:01:14;99975.91;;;19.14;65.84
23996;BME280;12207;50.076;8.848;2023-09-19T08:03:42;99981.34;;;19.14;66.37
23996;BME280;12207;50.076;8.848;2023-09-19T08:06:09;99985.72;;;19.10;66.57
23996;BME280;12207;50.076;8.848;2023-09-19T08:08:36;99988.19;;;18.86;67.88
23996;BME280;12207;50.076;8.848;2023-09-19T08:11:04;99993.84;;;18.95;67.91
23996;BME280;12207;50.076;8.848;2023-09-19T08:13:40;99996.31;;;18.86;67.83
23996;BME280;12207;50.076;8.848;2023-09-19T08:16:10;99992.25;;;19.04;67.11
23996;BME280;12207;50.076;8.848;2023-09-19T08:18:36;100003.09;;;18.99;68.03
23996;BME280;12207;50.076;8.848;2023-09-19T08:21:06;99994.38;;;19.22;67.22
23996;BME280;12207;50.076;8.848;2023-09-19T08:23:37;99991.69;;;19.32;66.72
23996;BME280;12207;50.076;8.848;2023-09-19T08:26:07;99999.56;;;19.29;66.03
23996;BME280;12207;50.076;8.848;2023-09-19T08:28:37;100002.00;;;19.35;65.75
23996;BME280;12207;50.076;8.848;2023-09-19T08:31:07;100000.34;;;19.50;63.32
23996;BME280;12207;50.076;8.848;2023-09-19T08:33:35;100003.84;;;19.75;63.15
23996;BME280;12207;50.076;8.848;2023-09-19T08:36:05;100007.34;;;19.81;60.48
23996;BME280;12207;50.076;8.848;2023-09-19T08:38:35;99999.69;;;19.93;59.69
23996;BME280;12207;50.076;8.848;2023-09-19T08:41:07;100018.47;;;19.85;59.87
23996;BME280;12207;50.076;8.848;2023-09-19T08:43:36;100003.75;;;20.01;60.51
23996;BME280;12207;50.076;8.848;2023-09-19T08:48:32;100006.53;;;20.50;57.09
23996;BME280;12207;50.076;8.848;2023-09-19T08:51:03;100009.53;;;20.88;57.85
23996;BME280;12207;50.076;8.848;2023-09-19T08:53:47;100006.03;;;20.82;56.34
23996;BME280;12207;50.076;8.848;2023-09-19T08:56:17;99997.72;;;20.63;55.54
23996;BME280;12207;50.076;8.848;2023-09-19T08:58:51;100014.38;;;20.96;55.26
23996;BME280;12207;50.076;8.848;2023-09-19T09:01:20;100004.88;;;20.88;54.47
23996;BME280;12207;50.076;8.848;2023-09-19T09:03:56;100004.66;;;21.19;54.44
23996;BME280;12207;50.076;8.848;2023-09-19T09:06:24;100013.31;;;21.55;53.37
23996;BME280;12207;50.076;8.848;2023-09-19T09:08:51;100012.41;;;21.88;52.12
23996;BME280;12207;50.076;8.848;2023-09-19T09:11:21;100011.88;;;21.62;52.73
23996;BME280;12207;50.076;8.848;2023-09-19T09:13:48;100018.06;;;21.44;51.54
23996;BME280;12207;50.076;8.848;2023-09-19T09:16:15;100018.63;;;21.70;52.99
23996;BME280;12207;50.076;8.848;2023-09-19T09:18:47;100027.41;;;22.15;49.75
23996;BME280;12207;50.076;8.848;2023-09-19T09:21:18;100018.56;;;22.23;50.80
23996;BME280;12207;50.076;8.848;2023-09-19T09:23:48;100026.09;;;22.31;50.02
23996;BME280;12207;50.076;8.848;2023-09-19T09:26:15;100025.06;;;22.27;49.96
23996;BME280;12207;50.076;8.848;2023-09-19T09:28:46;100014.13;;;22.27;49.40
23996;BME280;12207;50.076;8.848;2023-09-19T09:31:23;100016.72;;;21.94;50.39
23996;BME280;12207;50.076;8.848;2023-09-19T09:33:57;100022.06;;;22.04;49.99
23996;BME280;12207;50.076;8.848;2023-09-19T09:36:37;100016.47;;;21.67;51.45
23996;BME280;12207;50.076;8.848;2023-09-19T09:39:04;100020.66;;;21.83;50.36
23996;BME280;12207;50.076;8.848;2023-09-19T09:41:57;100019.50;;;21.65;49.95
23996;BME280;12207;50.076;8.848;2023-09-19T09:44:25;100018.97;;;21.34;52.35
23996;BME280;12207;50.076;8.848;2023-09-19T09:46:53;100016.00;;;21.84;51.73
23996;BME280;12207;50.076;8.848;2023-09-19T09:49:24;100019.84;;;22.06;49.96
23996;BME280;12207;50.076;8.848;2023-09-19T09:52:07;100016.25;;;21.87;48.69
23996;BME280;12207;50.076;8.848;2023-09-19T09:54:35;100013.47;;;22.16;48.64
23996;BME280;12207;50.076;8.848;2023-09-19T09:57:09;100019.59;;;22.88;49.11
23996;BME280;12207;50.076;8.848;2023-09-19T09:59:56;100027.38;;;22.95;45.96
23996;BME280;12207;50.076;8.848;2023-09-19T10:02:41;100025.59;;;23.04;48.04
23996;BME280;12207;50.076;8.848;2023-09-19T10:05:21;100016.81;;;22.69;46.88
23996;BME280;12207;50.076;8.848;2023-09-19T10:07:52;100023.47;;;23.01;45.48
23996;BME280;12207;50.076;8.848;2023-09-19T10:10:36;100028.41;;;22.61;45.81
23996;BME280;12207;50.076;8.848;2023-09-19T10:13:13;100029.16;;;22.67;46.72
23996;BME280;12207;50.076;8.848;2023-09-19T10:15:43;100029.19;;;22.86;47.16
23996;BME280;12207;50.076;8.848;2023-09-19T10:18:21;100030.28;;;22.85;47.47
23996;BME280;12207;50.076;8.848;2023-09-19T10:20:48;100029.09;;;22.91;46.41
23996;BME280;12207;50.076;8.848;2023-09-19T10:23:19;100022.47;;;22.17;48.11
23996;BME280;12207;50.076;8.848;2023-09-19T10:25:50;100020.03;;;21.91;47.57
23996;BME280;12207;50.076;8.848;2023-09-19T10:28:18;100010.88;;;21.77;47.38
23996;BME280;12207;50.076;8.848;2023-09-19T10:30:52;100022.59;;;22.06;49.88
23996;BME280;12207;50.076;8.848;2023-09-19T10:33:21;100023.44;;;22.44;47.17
23996;BME280;12207;50.076;8.848;2023-09-19T10:35:51;100033.28;;;22.64;46.60
23996;BME280;12207;50.076;8.848;2023-09-19T10:38:19;100040.22;;;22.57;45.49
23996;BME280;12207;50.076;8.848;2023-09-19T10:40:55;100038.78;;;22.83;44.78
23996;BME280;12207;50.076;8.848;2023-09-19T10:43:33;100039.13;;;23.14;43.41
23996;BME280;12207;50.076;8.848;2023-09-19T10:46:07;100043.66;;;23.51;43.34
23996;BME280;12207;50.076;8.848;2023-09-19T10:48:37;100042.59;;;23.01;43.62
23996;BME280;12207;50.076;8.848;2023-09-19T10:51:18;100040.69;;;22.83;44.75
23996;BME280;12207;50.076;8.848;2023-09-19T10:54:08;100037.84;;;22.69;44.03
23996;BME280;12207;50.076;8.848;2023-09-19T10:56:43;100030.78;;;23.05;45.05
23996;BME280;12207;50.076;8.848;2023-09-19T10:59:17;100025.41;;;23.46;45.18
23996;BME280;12207;50.076;8.848;2023-09-19T11:01:45;100031.97;;;22.81;44.65
23996;BME280;12207;50.076;8.848;2023-09-19T11:04:33;100029.03;;;22.16;44.95
23996;BME280;12207;50.076;8.848;2023-09-19T11:07:12;100033.25;;;22.27;47.44
23996;BME280;12207;50.076;8.848;2023-09-19T11:09:54;100027.56;;;22.85;46.74
23996;BME280;12207;50.076;8.848;2023-09-19T11:15:08;100014.16;;;22.45;46.84
23996;BME280;12207;50.076;8.848;2023-09-19T11:17:37;100017.69;;;22.46;47.08
23996;BME280;12207;50.076;8.848;2023-09-19T11:30:46;99987.22;;;22.58;45.19
23996;BME280;12207;50.076;8.848;2023-09-19T11:33:32;99989.97;;;22.39;45.20
23996;BME280;12207;50.076;8.848;2023-09-19T11:36:15;99981.19;;;23.12;42.16
23996;BME280;12207;50.076;8.848;2023-09-19T11:46:27;99974.56;;;22.99;42.46
23996;BME280;12207;50.076;8.848;2023-09-19T11:48:54;99971.31;;;23.43;41.34
23996;BME280;12207;50.076;8.848;2023-09-19T11:51:24;99975.63;;;23.91;40.86
23996;BME280;12207;50.076;8.848;2023-09-19T11:53:55;99976.22;;;23.88;41.44
23996;BME280;12207;50.076;8.848;2023-09-19T11:56:23;99981.09;;;24.04;40.98
23996;BME280;12207;50.076;8.848;2023-09-19T11:58:52;99985.16;;;23.79;41.03
23996;BME280;12207;50.076;8.848;2023-09-19T12:01:29;99978.31;;;23.50;41.70
23996;BME280;12207;50.076;8.848;2023-09-19T12:03:57;99971.41;;;22.92;43.07
23996;BME280;12207;50.076;8.848;2023-09-19T12:06:28;99981.66;;;22.44;42.61
23996;BME280;12207;50.076;8.848;2023-09-19T12:09:02;99972.50;;;22.72;44.35
23996;BME280;12207;50.076;8.848;2023-09-19T12:11:33;99972.47;;;23.10;43.37
23996;BME280;12207;50.076;8.848;2023-09-19T12:14:08;99982.03;;;23.26;40.55
23996;BME280;12207;50.076;8.848;2023-09-19T12:16:35;99983.06;;;23.30;39.91
23996;BME280;12207;50.076;8.848;2023-09-19T12:19:22;99991.72;;;23.65;40.08
23996;BME280;12207;50.076;8.848;2023-09-19T12:22:15;99979.47;;;23.62;40.10
23996;BME280;12207;50.076;8.848;2023-09-19T12:24:41;99974.50;;;24.05;40.36
23996;BME280;12207;50.076;8.848;2023-09-19T12:27:10;99974.56;;;23.45;40.48
23996;BME280;12207;50.076;8.848;2023-09-19T12:29:48;99974.81;;;22.84;42.08
23996;BME280;12207;50.076;8.848;2023-09-19T12:32:15;99972.03;;;23.49;40.48
23996;BME280;12207;50.076;8.848;2023-09-19T12:34:53;99969.13;;;24.00;40.57
23996;BME280;12207;50.076;8.848;2023-09-19T12:37:20;99956.81;;;24.11;39.66
23996;BME280;12207;50.076;8.848;2023-09-19T12:39:49;99949.22;;;24.22;39.18
23996;BME280;12207;50.076;8.848;2023-09-19T12:42:26;99965.03;;;24.11;38.47
23996;BME280;12207;50.076;8.848;2023-09-19T12:44:59;99952.81;;;24.09;39.22
23996;BME280;12207;50.076;8.848;2023-09-19T12:47:27;99957.19;;;23.69;39.04
23996;BME280;12207;50.076;8.848;2023-09-19T12:52:47;99953.94;;;23.67;40.52
23996;BME280;12207;50.076;8.848;2023-09-19T12:55:28;99951.59;;;23.74;40.06
23996;BME280;12207;50.076;8.848;2023-09-19T12:58:12;99943.75;;;23.26;40.42
23996;BME280;12207;50.076;8.848;2023-09-19T13:00:45;99947.31;;;23.40;40.65
23996;BME280;12207;50.076;8.848;2023-09-19T13:03:27;99933.03;;;23.98;39.27
23996;BME280;12207;50.076;8.848;2023-09-19T13:06:02;99937.50;;;24.44;39.14
23996;BME280;12207;50.076;8.848;2023-09-19T13:08:39;99927.06;;;24.46;39.19
23996;BME280;12207;50.076;8.848;2023-09-19T13:11:15;99924.69;;;24.31;39.02
23996;BME280;12207;50.076;8.848;2023-09-19T13:13:49;99920.88;;;24.04;39.17
23996;BME280;12207;50.076;8.848;2023-09-19T13:16:19;99930.41;;;24.07;38.86
23996;BME280;12207;50.076;8.848;2023-09-19T13:18:50;99934.41;;;24.09;38.67
23996;BME280;12207;50.076;8.848;2023-09-19T13:21:26;99924.94;;;23.93;38.48
23996;BME280;12207;50.076;8.848;2023-09-19T13:23:56;99926.94;;;24.01;38.45
23996;BME280;12207;50.076;8.848;2023-09-19T13:26:40;99921.47;;;24.01;39.68
23996;BME280;12207;50.076;8.848;2023-09-19T13:29:06;99932.84;;;23.67;38.96
23996;BME280;12207;50.076;8.848;2023-09-19T13:31:32;99924.84;;;23.71;38.90
23996;BME280;12207;50.076;8.848;2023-09-19T13:33:58;99930.53;;;23.61;39.42
23996;BME280;12207;50.076;8.848;2023-09-19T13:36:24;99925.16;;;23.56;39.70
23996;BME280;12207;50.076;8.848;2023-09-19T13:38:50;99936.31;;;23.73;39.63
23996;BME280;12207;50.076;8.848;2023-09-19T13:41:19;99924.84;;;23.71;40.85
23996;BME280;12207;50.076;8.848;2023-09-19T13:43:45;99917.63;;;23.34;39.67
23996;BME280;12207;50.076;8.848;2023-09-19T13:46:14;99914.47;;;23.40;39.53
23996;BME280;12207;50.076;8.848;2023-09-19T13:48:42;99934.50;;;23.55;39.95
23996;BME280;12207;50.076;8.848;2023-09-19T13:51:08;99910.66;;;23.83;38.43
23996;BME280;12207;50.076;8.848;2023-09-19T13:53:34;99913.94;;;23.57;38.97
23996;BME280;12207;50.076;8.848;2023-09-19T13:56:00;99922.47;;;23.09;39.75